Terminal Aerodrome Forecast
Issued by NWS

Home | Current Version | Previous Version | Text Only | Print | Product List | Glossary On
Versions: 1 2 3 4 5 6 7 8 9 10 11 12 13 14 15 16 17 18 19 20 21 22 23 24 25 26 27 28 29 30
000
FTUS41 KRNK 251729
TAFBCB
TAF
KBCB 251729Z 2518/2618 30007KT P6SM SCT200
     FM252200 VRB03KT P6SM SCT040 OVC150
     FM260500 35003KT P6SM -RA SCT035 OVC050
     FM260800 03004KT 3SM -SN BR SCT007 OVC015
     FM261000 36005KT 2SM -SN BR OVC009
      TEMPO 2611/2615 1/2SM SN FG OVC005=

USA.gov is the U.S. government's official web portal to all federal, state and local government web resources and services.